createdAt,value
2019-04-07T00:02:22.452Z,29.45
2019-04-07T00:04:53.518Z,30.35
2019-04-07T00:07:27.479Z,29.55
2019-04-07T00:09:58.908Z,29.05
2019-04-07T00:15:02.647Z,30.25
2019-04-07T00:17:33.890Z,29.45
2019-04-07T00:20:07.151Z,28.87
2019-04-07T00:22:38.326Z,29.50
2019-04-07T00:25:09.528Z,30.52
2019-04-07T00:27:40.610Z,30.20
2019-04-07T00:30:11.330Z,30.08
2019-04-07T00:32:42.808Z,29.75
2019-04-07T00:35:23.216Z,30.08
2019-04-07T00:37:46.701Z,30.05
2019-04-07T00:40:18.438Z,29.72
2019-04-07T00:42:49.310Z,31.10
2019-04-07T00:45:20.709Z,32.30
2019-04-07T00:47:51.757Z,32.03
2019-04-07T00:50:23.138Z,33.08
2019-04-07T00:52:54.649Z,33.60
2019-04-07T00:55:26.271Z,33.23
2019-04-07T00:57:58.424Z,36.90
2019-04-07T01:00:32.419Z,35.25
2019-04-07T01:03:04.080Z,27.40
2019-04-07T01:05:38.478Z,36.00
2019-04-07T01:08:09.640Z,35.95
2019-04-07T01:10:40.633Z,33.88
2019-04-07T01:13:12.116Z,31.85
2019-04-07T01:15:43.671Z,35.30
2019-04-07T01:18:14.423Z,36.00
2019-04-07T01:20:46.863Z,33.20
2019-04-07T01:23:18.177Z,33.90
2019-04-07T01:25:51.041Z,34.00
2019-04-07T01:28:22.470Z,33.90
2019-04-07T01:30:53.386Z,33.20
2019-04-07T01:33:24.840Z,32.85
2019-04-07T01:35:55.466Z,31.77
2019-04-07T01:38:26.918Z,31.35
2019-04-07T01:41:06.356Z,30.43
2019-04-07T01:43:39.333Z,31.27
2019-04-07T01:46:21.755Z,23.83
2019-04-07T01:49:09.122Z,30.40
2019-04-07T01:51:43.992Z,30.32
2019-04-07T01:54:26.165Z,31.45
2019-04-07T01:57:16.787Z,30.27
2019-04-07T02:00:07.371Z,29.75
2019-04-07T02:02:42.874Z,29.80
2019-04-07T02:05:31.588Z,30.17
2019-04-07T02:08:04.518Z,29.25
2019-04-07T02:10:55.946Z,29.48
2019-04-07T02:13:38.084Z,28.83
2019-04-07T02:16:13.086Z,29.52
2019-04-07T02:18:58.649Z,33.42
2019-04-07T02:21:45.613Z,28.47
2019-04-07T02:24:37.228Z,29.87
2019-04-07T02:27:11.946Z,30.72
2019-04-07T02:30:03.890Z,31.12
2019-04-07T02:32:53.157Z,32.73
2019-04-07T02:35:32.389Z,33.50
2019-04-07T02:38:14.942Z,32.85
2019-04-07T02:40:48.769Z,32.05
2019-04-07T02:43:21.592Z,34.70
2019-04-07T02:46:00.034Z,33.50
2019-04-07T02:48:48.969Z,36.33
2019-04-07T02:51:38.363Z,34.33
2019-04-07T02:54:27.903Z,33.55
2019-04-07T02:57:03.584Z,34.48
2019-04-07T02:59:40.137Z,35.03
2019-04-07T03:02:16.272Z,35.80
2019-04-07T03:04:48.866Z,34.53
2019-04-07T03:07:27.363Z,35.05
2019-04-07T03:10:00.314Z,35.73
2019-04-07T03:12:35.566Z,28.17
2019-04-07T03:15:11.479Z,35.13
2019-04-07T03:17:59.359Z,36.25
2019-04-07T03:20:34.523Z,35.63
2019-04-07T03:23:22.548Z,35.17
2019-04-07T03:26:02.216Z,36.83
2019-04-07T03:28:52.582Z,36.10
2019-04-07T03:31:27.047Z,33.92
2019-04-07T03:34:01.361Z,34.03
2019-04-07T03:39:26.533Z,35.10
2019-04-07T03:41:59.194Z,34.63
2019-04-07T03:44:51.204Z,32.63
2019-04-07T03:47:39.794Z,36.70
2019-04-07T03:50:18.690Z,38.60
2019-04-07T03:53:03.287Z,38.00
2019-04-07T03:55:47.836Z,48.20
2019-04-07T03:58:37.576Z,40.10
2019-04-07T04:01:27.360Z,41.30
2019-04-07T04:04:00.727Z,47.08
2019-04-07T04:06:50.153Z,45.73
2019-04-07T04:09:42.202Z,45.17
2019-04-07T04:12:24.502Z,42.58
2019-04-07T04:15:01.577Z,42.48
2019-04-07T04:17:32.753Z,42.98
2019-04-07T04:20:04.294Z,39.60
2019-04-07T04:22:35.838Z,39.63
2019-04-07T04:25:08.490Z,38.35
2019-04-07T04:27:39.835Z,40.15
2019-04-07T04:30:12.224Z,39.83
2019-04-07T04:32:43.664Z,39.70
2019-04-07T04:35:14.881Z,39.78
2019-04-07T04:37:51.152Z,40.38
2019-04-07T04:40:22.267Z,39.75
2019-04-07T04:42:54.002Z,37.53
2019-04-07T04:45:26.293Z,38.83
2019-04-07T04:47:57.677Z,36.40
2019-04-07T04:50:29.866Z,36.45
2019-04-07T04:53:02.090Z,36.07
2019-04-07T04:55:33.812Z,33.88
2019-04-07T04:58:07.295Z,35.95
2019-04-07T05:00:40.425Z,34.48
2019-04-07T05:03:13.840Z,34.47
2019-04-07T05:05:45.704Z,25.48
2019-04-07T05:08:20.399Z,33.30
2019-04-07T05:10:53.257Z,32.33
2019-04-07T05:13:25.059Z,31.07
2019-04-07T05:15:56.081Z,31.80
2019-04-07T05:18:27.762Z,31.25
2019-04-07T05:20:59.760Z,30.65
2019-04-07T05:23:30.681Z,30.17
2019-04-07T05:26:03.637Z,30.43
2019-04-07T05:28:36.873Z,28.87
2019-04-07T05:31:07.368Z,30.62
2019-04-07T05:33:40.038Z,29.92
2019-04-07T05:36:10.875Z,28.17
2019-04-07T05:38:42.079Z,26.68
2019-04-07T05:41:15.663Z,26.87
2019-04-07T05:43:49.129Z,25.88
2019-04-07T05:46:22.809Z,31.77
2019-04-07T05:48:53.457Z,27.75
2019-04-07T05:51:29.868Z,24.52
2019-04-07T05:53:59.269Z,23.12
2019-04-07T05:56:33.218Z,22.62
2019-04-07T05:59:03.849Z,22.13
2019-04-07T06:01:34.678Z,17.07
2019-04-07T06:04:06.697Z,17.82
2019-04-07T06:06:40.778Z,17.50
2019-04-07T06:09:10.154Z,18.12
2019-04-07T06:11:40.927Z,18.55
2019-04-07T06:14:15.096Z,17.92
2019-04-07T06:16:46.934Z,16.30
2019-04-07T06:19:18.234Z,17.12
2019-04-07T06:21:49.907Z,16.82
2019-04-07T06:24:22.292Z,15.53
2019-04-07T06:26:53.312Z,15.23
2019-04-07T06:29:26.338Z,14.68
2019-04-07T06:32:02.323Z,14.07
2019-04-07T06:34:32.650Z,13.35
2019-04-07T06:37:04.479Z,14.53
2019-04-07T06:39:35.395Z,14.25
2019-04-07T06:42:06.468Z,13.25
2019-04-07T06:44:37.739Z,13.60
2019-04-07T06:47:17.990Z,13.53
2019-04-07T06:49:56.643Z,13.62
2019-04-07T06:52:29.000Z,15.58
2019-04-07T06:55:19.064Z,12.87
2019-04-07T06:58:08.455Z,13.65
2019-04-07T07:00:58.331Z,12.58
2019-04-07T07:03:47.627Z,13.03
2019-04-07T07:06:24.090Z,13.53
2019-04-07T07:09:00.810Z,12.20
2019-04-07T07:11:40.689Z,12.23
2019-04-07T07:14:14.420Z,11.97
2019-04-07T07:16:49.960Z,11.88
2019-04-07T07:19:27.453Z,12.98
2019-04-07T07:22:13.172Z,12.90
2019-04-07T07:24:42.776Z,12.45
2019-04-07T07:27:13.912Z,11.03
2019-04-07T07:29:47.291Z,11.28
2019-04-07T07:32:18.654Z,11.88
2019-04-07T07:34:50.764Z,11.05
2019-04-07T07:37:22.964Z,12.20
2019-04-07T07:39:56.371Z,10.50
2019-04-07T07:42:27.773Z,11.50
2019-04-07T07:44:58.867Z,11.03
2019-04-07T07:47:30.536Z,11.00
2019-04-07T07:50:04.900Z,11.20
2019-04-07T07:52:35.133Z,11.08
2019-04-07T07:55:07.598Z,10.13
2019-04-07T07:57:38.645Z,9.80
2019-04-07T08:00:10.337Z,9.78
2019-04-07T08:05:13.626Z,10.55
2019-04-07T08:07:48.201Z,10.65
2019-04-07T08:10:18.704Z,11.30
2019-04-07T08:12:49.653Z,11.03
2019-04-07T08:15:25.409Z,10.15
2019-04-07T08:17:53.179Z,10.70
2019-04-07T08:20:24.602Z,9.78
2019-04-07T08:22:56.235Z,11.43
2019-04-07T08:25:28.127Z,10.08
2019-04-07T08:28:03.720Z,10.60
2019-04-07T08:30:33.599Z,11.05
2019-04-07T08:33:04.895Z,10.80
2019-04-07T08:35:39.480Z,13.85
2019-04-07T08:38:11.050Z,10.75
2019-04-07T08:40:41.721Z,10.48
2019-04-07T08:43:12.741Z,9.35
2019-04-07T08:45:44.900Z,10.58
2019-04-07T08:48:18.203Z,10.78
2019-04-07T08:50:48.606Z,11.70
2019-04-07T08:53:19.625Z,10.90
2019-04-07T08:55:54.392Z,11.10
2019-04-07T08:58:27.870Z,10.18
2019-04-07T09:00:57.451Z,10.60
2019-04-07T09:03:29.158Z,10.88
2019-04-07T09:05:59.884Z,10.38
2019-04-07T09:08:34.666Z,10.60
2019-04-07T09:11:05.371Z,11.97
2019-04-07T09:13:37.335Z,10.40
2019-04-07T09:16:20.018Z,11.28
2019-04-07T09:19:09.498Z,10.65
2019-04-07T09:21:58.421Z,10.18
2019-04-07T09:24:48.306Z,11.33
2019-04-07T09:27:30.006Z,10.15
2019-04-07T09:30:05.990Z,10.35
2019-04-07T09:32:55.861Z,10.60
2019-04-07T09:35:28.528Z,12.20
2019-04-07T09:38:03.997Z,11.50
2019-04-07T09:40:36.133Z,11.25
2019-04-07T09:43:26.172Z,10.80
2019-04-07T09:45:59.462Z,10.75
2019-04-07T09:48:42.836Z,10.90
2019-04-07T09:51:25.443Z,12.78
2019-04-07T09:53:57.780Z,11.45
2019-04-07T09:56:49.686Z,12.05
2019-04-07T09:59:35.018Z,13.30
2019-04-07T10:02:08.202Z,9.63
2019-04-07T10:04:55.764Z,9.55
2019-04-07T10:07:44.733Z,10.15
2019-04-07T10:10:25.051Z,9.28
2019-04-07T10:13:01.953Z,10.50
2019-04-07T10:15:40.142Z,10.00
2019-04-07T10:18:13.115Z,10.10
2019-04-07T10:20:49.198Z,10.08
2019-04-07T10:23:34.156Z,10.03
2019-04-07T10:26:22.880Z,9.55
2019-04-07T10:28:55.414Z,9.33
2019-04-07T10:31:37.635Z,11.38
2019-04-07T10:34:13.452Z,10.48
2019-04-07T10:36:46.319Z,10.08
2019-04-07T10:39:18.786Z,10.28
2019-04-07T10:42:08.834Z,10.28
2019-04-07T10:44:43.859Z,9.88
2019-04-07T10:47:34.810Z,9.83
2019-04-07T10:50:23.359Z,9.58
2019-04-07T10:53:12.632Z,9.73
2019-04-07T10:56:02.233Z,10.38
2019-04-07T10:58:41.457Z,9.38
2019-04-07T11:01:20.988Z,9.48
2019-04-07T11:03:59.420Z,9.63
2019-04-07T11:06:48.348Z,10.48
2019-04-07T11:09:31.944Z,9.20
2019-04-07T11:12:21.047Z,10.05
2019-04-07T11:14:54.749Z,9.45
2019-04-07T11:17:33.803Z,8.93
2019-04-07T11:20:08.388Z,9.73
2019-04-07T11:22:57.674Z,10.13
2019-04-07T11:25:47.724Z,10.32
2019-04-07T11:28:32.711Z,9.13
2019-04-07T11:31:17.889Z,9.28
2019-04-07T11:33:52.502Z,9.28
2019-04-07T11:36:25.480Z,8.63
2019-04-07T11:41:52.655Z,8.58
2019-04-07T11:44:41.206Z,9.00
2019-04-07T11:47:28.719Z,9.28
2019-04-07T11:50:02.077Z,8.50
2019-04-07T11:52:40.863Z,9.08
2019-04-07T11:55:19.360Z,8.85
2019-04-07T11:58:06.425Z,9.03
2019-04-07T12:00:47.343Z,9.18
2019-04-07T12:03:20.085Z,10.70
2019-04-07T12:05:54.033Z,9.00
2019-04-07T12:08:42.713Z,10.00
2019-04-07T12:11:24.609Z,9.18
2019-04-07T12:14:00.854Z,8.65
2019-04-07T12:16:49.158Z,9.50
2019-04-07T12:19:23.867Z,9.18
2019-04-07T12:22:08.699Z,8.80
2019-04-07T12:24:39.279Z,9.50
2019-04-07T12:30:05.561Z,9.48
2019-04-07T12:32:55.533Z,9.85
2019-04-07T12:35:36.914Z,8.90
2019-04-07T12:38:19.265Z,9.35
2019-04-07T12:41:13.377Z,9.13
2019-04-07T12:43:57.137Z,9.35
2019-04-07T12:46:46.467Z,8.55
2019-04-07T12:49:33.305Z,8.55
2019-04-07T12:52:17.445Z,8.13
2019-04-07T12:55:07.017Z,9.10
2019-04-07T12:57:45.877Z,9.18
2019-04-07T13:00:19.145Z,8.75
2019-04-07T13:03:11.682Z,8.23
2019-04-07T13:05:44.679Z,8.83
2019-04-07T13:08:17.987Z,8.63
2019-04-07T13:10:52.659Z,11.15
2019-04-07T13:13:41.881Z,8.73
2019-04-07T13:16:26.279Z,8.63
2019-04-07T13:21:30.645Z,8.60
2019-04-07T13:24:28.976Z,9.50
2019-04-07T13:27:04.009Z,8.90
2019-04-07T13:29:41.144Z,8.90
2019-04-07T13:32:13.231Z,8.48
2019-04-07T13:35:02.065Z,9.40
2019-04-07T13:37:38.321Z,9.95
2019-04-07T13:40:14.331Z,9.30
2019-04-07T13:42:59.067Z,9.43
2019-04-07T13:45:30.140Z,8.98
2019-04-07T13:48:15.832Z,8.38
2019-04-07T13:50:49.202Z,8.55
2019-04-07T13:53:37.847Z,8.83
2019-04-07T13:56:17.632Z,9.30
2019-04-07T13:58:54.364Z,10.13
2019-04-07T14:01:30.297Z,8.88
2019-04-07T14:04:07.824Z,9.43
2019-04-07T14:06:44.935Z,9.28
2019-04-07T14:09:34.098Z,8.65
2019-04-07T14:12:12.530Z,9.13
2019-04-07T14:14:47.217Z,9.55
2019-04-07T14:17:20.838Z,10.32
2019-04-07T14:22:32.139Z,10.10
2019-04-07T14:25:20.708Z,9.88
2019-04-07T14:28:12.862Z,9.58
2019-04-07T14:30:57.708Z,9.48
2019-04-07T14:33:42.524Z,9.98
2019-04-07T14:36:16.136Z,9.23
2019-04-07T14:38:48.648Z,10.03
2019-04-07T14:41:31.267Z,10.68
2019-04-07T14:44:11.008Z,11.03
2019-04-07T14:46:44.820Z,9.10
2019-04-07T14:49:35.822Z,9.63
2019-04-07T14:52:11.050Z,9.80
2019-04-07T14:55:01.454Z,10.05
2019-04-07T14:57:52.384Z,10.23
2019-04-07T15:00:42.916Z,9.73
2019-04-07T15:03:13.905Z,10.20
2019-04-07T15:05:49.510Z,10.75
2019-04-07T15:08:26.505Z,10.05
2019-04-07T15:10:59.707Z,11.80
2019-04-07T15:13:32.174Z,11.93
2019-04-07T15:16:03.532Z,9.70
2019-04-07T15:18:34.351Z,10.60
2019-04-07T15:21:06.824Z,11.85
2019-04-07T15:23:40.003Z,10.93
2019-04-07T15:26:14.621Z,11.55
2019-04-07T15:28:44.674Z,11.22
2019-04-07T15:31:18.347Z,10.35
2019-04-07T15:33:50.926Z,12.65
2019-04-07T15:36:22.122Z,12.53
2019-04-07T15:38:55.431Z,10.58
2019-04-07T15:41:25.475Z,12.28
2019-04-07T15:43:57.236Z,11.40
2019-04-07T15:46:28.841Z,11.40
2019-04-07T15:49:00.766Z,11.33
2019-04-07T15:51:34.975Z,11.38
2019-04-07T15:54:04.173Z,10.95
2019-04-07T15:56:35.707Z,11.10
2019-04-07T15:59:06.246Z,11.00
2019-04-07T16:01:38.721Z,11.78
2019-04-07T16:04:10.269Z,14.58
2019-04-07T16:06:47.032Z,12.95
2019-04-07T16:09:29.688Z,16.32
2019-04-07T16:11:50.819Z,13.78
2019-04-07T16:14:23.024Z,14.00
2019-04-07T16:16:54.791Z,11.48
2019-04-07T16:19:37.401Z,14.35
2019-04-07T16:21:58.192Z,12.65
2019-04-07T16:24:31.318Z,14.68
2019-04-07T16:27:05.418Z,11.93
2019-04-07T16:29:36.490Z,12.80
2019-04-07T16:32:08.158Z,11.40
2019-04-07T16:34:42.125Z,11.00
2019-04-07T16:37:11.733Z,11.48
2019-04-07T16:39:42.741Z,13.43
2019-04-07T16:42:15.322Z,12.70
2019-04-07T16:44:46.049Z,12.58
2019-04-07T16:47:22.481Z,12.43
2019-04-07T16:49:51.199Z,10.75
2019-04-07T16:52:24.415Z,15.10
2019-04-07T16:54:56.042Z,16.25
2019-04-07T16:57:29.884Z,14.87
2019-04-07T17:00:00.187Z,14.28
2019-04-07T17:02:31.646Z,14.43
2019-04-07T17:05:02.252Z,13.62
2019-04-07T17:07:34.042Z,13.72
2019-04-07T17:10:06.889Z,14.90
2019-04-07T17:12:40.608Z,17.00
2019-04-07T17:15:11.414Z,16.57
2019-04-07T17:17:43.519Z,17.73
2019-04-07T17:20:14.699Z,17.98
2019-04-07T17:22:47.738Z,15.38
2019-04-07T17:25:18.360Z,15.48
2019-04-07T17:27:49.773Z,16.12
2019-04-07T17:30:24.266Z,16.67
2019-04-07T17:35:24.553Z,18.12
2019-04-07T17:38:01.718Z,16.07
2019-04-07T17:40:31.943Z,16.70
2019-04-07T17:45:48.095Z,21.65
2019-04-07T17:48:38.508Z,22.35
2019-04-07T17:51:07.194Z,21.07
2019-04-07T17:53:54.043Z,26.12
2019-04-07T17:56:30.905Z,26.05
2019-04-07T17:59:14.258Z,25.97
2019-04-07T18:01:52.407Z,21.42
2019-04-07T18:04:25.114Z,21.48
2019-04-07T18:07:01.984Z,18.42
2019-04-07T18:09:32.816Z,21.85
2019-04-07T18:12:12.791Z,17.92
2019-04-07T18:14:43.737Z,19.52
2019-04-07T18:17:33.466Z,20.50
2019-04-07T18:20:08.908Z,17.80
2019-04-07T18:22:42.257Z,24.60
2019-04-07T18:25:14.727Z,18.95
2019-04-07T18:27:48.319Z,19.12
2019-04-07T18:33:05.415Z,18.65
2019-04-07T18:35:37.984Z,19.05
2019-04-07T18:38:27.501Z,20.95
2019-04-07T18:41:09.397Z,20.12
2019-04-07T18:43:50.667Z,21.45
2019-04-07T18:46:27.971Z,22.17
2019-04-07T18:49:04.868Z,21.05
2019-04-07T18:51:53.735Z,20.90
2019-04-07T18:54:38.892Z,23.12
2019-04-07T18:57:20.564Z,21.93
2019-04-07T19:00:08.570Z,22.48
2019-04-07T19:03:00.113Z,20.75
2019-04-07T19:05:45.807Z,21.82
2019-04-07T19:08:25.134Z,22.35
2019-04-07T19:11:10.816Z,21.15
2019-04-07T19:13:37.961Z,22.30
2019-04-07T19:16:19.381Z,20.35
2019-04-07T19:19:08.189Z,20.02
2019-04-07T19:21:55.416Z,20.17
2019-04-07T19:24:37.853Z,19.50
2019-04-07T19:27:30.128Z,20.00
2019-04-07T19:30:07.450Z,21.15
2019-04-07T19:32:40.048Z,31.02
2019-04-07T19:35:21.769Z,22.75
2019-04-07T19:37:54.391Z,22.95
2019-04-07T19:40:48.354Z,18.92
2019-04-07T19:43:39.904Z,19.80
2019-04-07T19:46:12.716Z,20.45
2019-04-07T19:48:52.177Z,18.73
2019-04-07T19:51:41.626Z,17.35
2019-04-07T19:54:18.025Z,17.10
2019-04-07T19:56:50.268Z,18.25
2019-04-07T19:59:31.899Z,18.35
2019-04-07T20:02:10.455Z,17.17
2019-04-07T20:04:45.831Z,18.05
2019-04-07T20:07:34.104Z,18.02
2019-04-07T20:10:23.718Z,17.35
2019-04-07T20:12:58.573Z,17.95
2019-04-07T20:15:43.145Z,17.52
2019-04-07T20:18:19.061Z,17.45
2019-04-07T20:21:13.218Z,17.40
2019-04-07T20:23:45.358Z,18.40
2019-04-07T20:29:06.608Z,17.70
2019-04-07T20:31:53.732Z,17.60
2019-04-07T20:34:26.788Z,17.65
2019-04-07T20:36:59.790Z,17.57
2019-04-07T20:39:36.569Z,16.87
2019-04-07T20:42:25.751Z,16.93
2019-04-07T20:45:04.232Z,17.15
2019-04-07T20:47:38.647Z,17.35
2019-04-07T20:50:28.100Z,17.50
2019-04-07T20:53:12.632Z,17.02
2019-04-07T20:55:49.575Z,17.12
2019-04-07T20:58:24.406Z,17.52
2019-04-07T21:01:10.041Z,17.05
2019-04-07T21:03:48.363Z,18.83
2019-04-07T21:06:34.260Z,17.15
2019-04-07T21:09:12.190Z,17.40
2019-04-07T21:12:02.983Z,18.12
2019-04-07T21:14:38.976Z,17.82
2019-04-07T21:17:29.672Z,18.00
2019-04-07T21:20:14.540Z,18.07
2019-04-07T21:23:04.667Z,18.65
2019-04-07T21:25:37.132Z,19.30
2019-04-07T21:28:18.685Z,20.20
2019-04-07T21:30:54.263Z,18.82
2019-04-07T21:33:44.846Z,19.98
2019-04-07T21:36:17.585Z,18.17
2019-04-07T21:38:55.167Z,18.45
2019-04-07T21:41:44.202Z,17.30
2019-04-07T21:44:17.483Z,16.40
2019-04-07T21:47:02.222Z,17.07
2019-04-07T21:49:41.799Z,17.17
2019-04-07T21:52:22.469Z,17.52
2019-04-07T21:54:58.210Z,17.42
2019-04-07T21:57:30.472Z,16.05
2019-04-07T22:00:21.182Z,15.65
2019-04-07T22:02:54.973Z,16.45
2019-04-07T22:05:34.977Z,14.80
2019-04-07T22:08:15.538Z,15.18
2019-04-07T22:10:44.766Z,15.78
2019-04-07T22:13:15.872Z,15.53
2019-04-07T22:15:51.893Z,14.00
2019-04-07T22:18:21.557Z,14.73
2019-04-07T22:20:54.822Z,13.93
2019-04-07T22:23:25.423Z,13.38
2019-04-07T22:25:57.082Z,12.70
2019-04-07T22:28:29.347Z,13.38
2019-04-07T22:31:01.507Z,13.22
2019-04-07T22:33:33.730Z,13.30
2019-04-07T22:36:05.856Z,12.30
2019-04-07T22:38:37.673Z,12.85
2019-04-07T22:41:10.071Z,13.90
2019-04-07T22:43:41.825Z,13.45
2019-04-07T22:46:19.507Z,12.25
2019-04-07T22:48:45.919Z,12.00
2019-04-07T22:51:17.020Z,12.68
2019-04-07T22:53:47.926Z,12.33
2019-04-07T22:56:18.766Z,12.55
2019-04-07T22:58:49.707Z,12.55
2019-04-07T23:01:23.043Z,12.68
2019-04-07T23:03:53.819Z,12.53
2019-04-07T23:06:25.381Z,11.90
2019-04-07T23:08:57.171Z,12.03
2019-04-07T23:11:29.996Z,11.88
2019-04-07T23:14:01.025Z,13.50
2019-04-07T23:16:32.506Z,11.90
2019-04-07T23:19:03.444Z,10.95
2019-04-07T23:21:34.377Z,11.85
2019-04-07T23:24:05.624Z,10.82
2019-04-07T23:26:38.226Z,10.75
2019-04-07T23:29:10.040Z,11.93
2019-04-07T23:31:40.962Z,11.48
2019-04-07T23:34:12.035Z,11.75
2019-04-07T23:36:43.620Z,11.30
2019-04-07T23:39:15.265Z,11.60
2019-04-07T23:41:46.584Z,11.97
2019-04-07T23:44:17.441Z,12.73
2019-04-07T23:46:48.955Z,12.50
2019-04-07T23:49:20.479Z,12.43
2019-04-07T23:51:51.666Z,13.13
2019-04-07T23:54:22.910Z,12.47
2019-04-07T23:56:54.153Z,12.73
2019-04-07T23:59:25.190Z,13.28
